Time;durP1;ratioP1;P1;durP2;ratioP2;P2;SDS_P1;SDS_P2;PMS_P1;PMS_P2;Temp;Humidity;BMP_temperature;BMP_pressure;BME280_temperature;BME280_humidity;BME280_pressure;Samples;Min_cycle;Max_cycle;Signal;HPM_P1;HPM_P2
2022/07/28 00:01:55;;;;;;;6.03;4.20;;;;;;;29.34;32.92;99029.44;5030122;28;20022;-83
2022/07/28 00:04:20;;;;;;;5.70;4.60;;;;;;;29.64;32.75;99063.97;5046924;28;20021;-83
2022/07/28 00:06:46;;;;;;;6.38;4.28;;;;;;;29.52;32.83;99043.91;5031784;28;20151;-84
2022/07/28 00:09:11;;;;;;;5.30;4.57;;;;;;;29.67;32.93;99084.31;5030300;28;20072;-84
2022/07/28 00:11:37;;;;;;;6.75;4.28;;;;;;;29.85;32.53;99098.78;5031408;28;20395;-84
2022/07/28 00:14:03;;;;;;;6.97;4.53;;;;;;;28.19;32.85;98856.31;5031849;28;20467;-84
2022/07/28 00:16:28;;;;;;;5.72;4.72;;;;;;;29.05;33.10;98983.72;5046718;28;20025;-83
2022/07/28 00:18:54;;;;;;;4.88;4.47;;;;;;;29.56;32.82;99097.38;5030583;28;20026;-84
2022/07/28 00:21:19;;;;;;;6.30;4.97;;;;;;;29.27;32.88;99040.75;5031924;28;20482;-83
2022/07/28 00:23:45;;;;;;;7.25;4.88;;;;;;;29.33;33.24;99057.75;5031857;28;20044;-83
2022/07/28 00:26:11;;;;;;;5.40;4.43;;;;;;;29.13;33.15;99025.66;5030676;28;20418;-83
2022/07/28 00:28:37;;;;;;;8.00;4.95;;;;;;;29.67;33.01;99125.91;5031869;28;20052;-84
2022/07/28 00:31:04;;;;;;;5.57;4.32;;;;;;;29.22;33.54;99061.84;5031782;28;20057;-83
2022/07/28 00:33:29;;;;;;;6.40;4.68;;;;;;;29.26;33.60;99074.50;5031958;28;20036;-83
2022/07/28 00:35:56;;;;;;;7.97;5.07;;;;;;;29.29;33.77;99098.34;5031836;28;20140;-84
2022/07/28 00:38:22;;;;;;;5.47;4.63;;;;;;;28.68;33.87;99012.88;5044641;28;20060;-84
2022/07/28 00:43:31;;;;;;;6.50;5.72;;;;;;;29.05;34.25;99104.13;5032934;28;20418;-83
2022/07/28 00:45:56;;;;;;;7.53;5.38;;;;;;;28.53;34.88;99035.00;5034619;28;20021;-83
2022/07/28 00:48:22;;;;;;;7.13;5.45;;;;;;;29.04;34.85;99145.22;5031915;28;20025;-83
2022/07/28 00:50:47;;;;;;;5.70;5.05;;;;;;;28.43;34.95;99055.06;5034511;28;20014;-83
2022/07/28 00:53:13;;;;;;;5.75;5.25;;;;;;;27.97;35.24;98994.72;5033984;28;20470;-84
2022/07/28 00:55:40;;;;;;;8.05;5.97;;;;;;;28.59;35.19;99120.69;5035734;28;20025;-84
2022/07/28 00:58:06;;;;;;;6.10;5.55;;;;;;;26.99;35.39;98867.69;5034042;28;20486;-84
2022/07/28 01:00:31;;;;;;;6.88;5.50;;;;;;;28.16;35.51;99050.44;5030928;28;20032;-84
2022/07/28 01:02:57;;;;;;;6.80;6.10;;;;;;;28.60;35.58;99116.84;5029698;28;20415;-83
2022/07/28 01:05:24;;;;;;;6.43;5.45;;;;;;;28.16;35.85;99055.88;5029864;28;20104;-84
2022/07/28 01:08:02;;;;;;;6.85;5.85;;;;;;;28.60;36.13;99140.50;5031133;28;20417;-84
2022/07/28 01:10:57;;;;;;;8.88;5.82;;;;;;;28.63;35.80;99139.91;5030984;28;20053;-84
2022/07/28 01:13:41;;;;;;;7.85;6.00;;;;;;;28.58;35.98;99142.72;5029357;28;20026;-84
2022/07/28 01:16:07;;;;;;;8.45;6.00;;;;;;;28.13;36.35;99089.06;5030873;28;20033;-84
2022/07/28 01:18:48;;;;;;;6.60;6.00;;;;;;;28.26;36.23;99155.38;5046160;28;20021;-84
2022/07/28 01:21:24;;;;;;;8.18;5.80;;;;;;;28.37;36.39;99126.88;5029819;28;20033;-84
2022/07/28 01:24:26;;;;;;;7.43;5.28;;;;;;;27.94;36.45;99055.84;5032670;28;20445;-84
2022/07/28 01:27:14;;;;;;;7.07;5.88;;;;;;;28.22;36.62;99110.88;5023245;28;20464;-84
2022/07/28 01:29:57;;;;;;;7.43;5.47;;;;;;;28.47;36.46;99142.16;5037410;28;20024;-84
2022/07/28 01:32:26;;;;;;;9.60;5.82;;;;;;;28.51;36.58;99145.84;5036266;28;20031;-84
2022/07/28 01:34:59;;;;;;;8.57;5.95;;;;;;;28.49;36.75;99139.94;5035034;28;20030;-84
2022/07/28 01:37:29;;;;;;;7.38;5.70;;;;;;;28.11;36.91;99115.72;5033129;28;20025;-84
2022/07/28 01:39:58;;;;;;;7.50;6.55;;;;;;;28.27;36.67;99140.69;5033046;28;20027;-84
2022/07/28 01:42:31;;;;;;;7.65;6.60;;;;;;;27.30;36.85;98999.88;5034110;28;20018;-84
2022/07/28 01:44:58;;;;;;;7.90;7.13;;;;;;;27.65;37.16;99048.03;5034386;28;20036;-84
2022/07/28 01:47:27;;;;;;;8.23;7.40;;;;;;;27.58;37.50;99052.22;5033851;28;20108;-84
2022/07/28 01:49:55;;;;;;;8.27;7.50;;;;;;;27.77;37.68;99109.91;5033796;28;20021;-84
2022/07/28 01:52:23;;;;;;;10.82;7.95;;;;;;;28.00;38.10;99152.31;5033626;28;20033;-84
2022/07/28 01:54:49;;;;;;;8.75;7.72;;;;;;;27.73;38.26;99123.28;5033539;28;20494;-84
2022/07/28 01:57:17;;;;;;;9.73;7.68;;;;;;;27.67;38.34;99126.38;5033460;28;20028;-84
2022/07/28 01:59:43;;;;;;;8.75;7.95;;;;;;;27.60;38.38;99124.03;5031925;28;20048;-84
2022/07/28 02:02:11;;;;;;;11.50;8.48;;;;;;;27.30;38.53;99075.78;5033363;28;20083;-84
2022/07/28 02:04:39;;;;;;;10.02;9.02;;;;;;;27.58;38.78;99130.88;5033485;28;20018;-84
2022/07/28 02:07:07;;;;;;;9.48;8.63;;;;;;;27.48;38.74;99120.97;5032374;28;20017;-84
2022/07/28 02:09:34;;;;;;;9.48;8.57;;;;;;;27.84;38.78;99168.09;5033530;28;20017;-84
2022/07/28 02:12:01;;;;;;;10.80;8.85;;;;;;;27.40;38.90;99105.41;5032758;28;20029;-84
2022/07/28 02:14:28;;;;;;;11.18;7.90;;;;;;;26.89;38.84;99023.06;5032879;28;20022;-84
2022/07/28 02:17:00;;;;;;;9.98;7.82;;;;;;;27.26;38.86;99089.13;5034326;28;20026;-83
2022/07/28 02:19:28;;;;;;;9.27;8.35;;;;;;;27.90;38.95;99195.94;5049178;28;20025;-84
2022/07/28 02:21:56;;;;;;;12.35;8.23;;;;;;;27.88;38.96;99176.44;5032994;28;20113;-84
2022/07/28 02:24:25;;;;;;;8.80;7.80;;;;;;;27.84;39.02;99183.56;5033857;28;20021;-84
2022/07/28 02:27:00;;;;;;;8.73;8.00;;;;;;;27.73;38.96;99191.09;5032618;28;20036;-84
2022/07/28 02:29:27;;;;;;;9.52;8.40;;;;;;;27.47;38.85;99189.88;5033229;28;20018;-84
2022/07/28 02:32:05;;;;;;;10.15;9.00;;;;;;;27.26;39.14;99112.72;5033477;28;20112;-84
2022/07/28 02:34:37;;;;;;;10.13;8.80;;;;;;;27.44;38.99;99155.22;5033254;28;20056;-84
2022/07/28 02:37:03;;;;;;;10.30;8.55;;;;;;;27.09;38.98;99097.81;5037778;28;20052;-84
2022/07/28 02:39:39;;;;;;;9.38;8.57;;;;;;;26.92;39.13;99081.28;5054572;28;20013;-84
2022/07/28 02:42:11;;;;;;;9.38;8.48;;;;;;;27.16;39.47;99136.19;5033002;28;20418;-84
2022/07/28 02:44:41;;;;;;;10.95;9.20;;;;;;;25.91;39.58;98942.84;5033529;28;20068;-84
2022/07/28 02:47:11;;;;;;;10.10;8.90;;;;;;;26.72;39.67;99079.69;5032281;28;20021;-84
2022/07/28 02:49:39;;;;;;;10.65;8.80;;;;;;;27.30;39.70;99189.63;5032107;28;20498;-84
2022/07/28 02:52:07;;;;;;;11.85;8.90;;;;;;;27.33;39.62;99208.00;5033091;28;20036;-84
2022/07/28 02:54:33;;;;;;;11.30;9.05;;;;;;;27.42;39.78;99207.03;5031550;28;20039;-84
2022/07/28 02:57:00;;;;;;;9.40;8.52;;;;;;;26.12;39.88;99000.97;5032999;28;20528;-84
2022/07/28 02:59:26;;;;;;;9.35;8.45;;;;;;;26.88;39.58;99153.41;5031143;28;20049;-84
2022/07/28 03:01:53;;;;;;;9.18;8.27;;;;;;;27.01;39.51;99163.53;5032725;28;20040;-84
2022/07/28 03:04:55;;;;;;;9.43;8.48;;;;;;;26.92;39.50;99136.28;5031219;28;20490;-84
2022/07/28 03:07:07;;;;;;;9.55;8.55;;;;;;;26.88;39.59;99170.47;5032778;28;20029;-84
2022/07/28 03:09:44;;;;;;;10.27;8.52;;;;;;;26.91;40.05;99178.00;5031552;28;20557;-84
2022/07/28 03:12:10;;;;;;;10.98;8.57;;;;;;;27.00;39.80;99212.59;5031266;28;20482;-84
2022/07/28 03:14:36;;;;;;;9.07;8.02;;;;;;;27.11;39.87;99214.84;5032471;28;20040;-84
2022/07/28 03:17:02;;;;;;;8.90;8.02;;;;;;;26.75;39.79;99165.75;5031074;28;20029;-84
2022/07/28 03:19:27;;;;;;;11.18;8.77;;;;;;;26.36;39.87;99117.31;5032245;28;20033;-84
2022/07/28 03:21:53;;;;;;;9.00;8.10;;;;;;;26.42;39.77;99109.94;5031919;28;20025;-84
2022/07/28 03:24:31;;;;;;;10.73;8.20;;;;;;;27.13;39.75;99217.28;5047221;28;20445;-84
2022/07/28 03:27:08;;;;;;;9.25;8.15;;;;;;;27.24;39.68;99226.84;5047486;28;20037;-84
2022/07/28 03:29:35;;;;;;;9.30;7.57;;;;;;;26.88;39.56;99186.72;5032275;28;20033;-84
2022/07/28 03:32:01;;;;;;;10.05;8.80;;;;;;;26.34;39.78;99100.56;5032196;28;20031;-84
2022/07/28 03:34:28;;;;;;;9.50;7.57;;;;;;;26.40;39.85;99099.38;5047434;28;20104;-84
2022/07/28 03:37:10;;;;;;;10.70;8.45;;;;;;;26.76;39.74;99172.81;5032288;28;20116;-84
2022/07/28 03:39:47;;;;;;;14.48;8.63;;;;;;;26.75;39.96;99164.97;5047388;28;20033;-85
2022/07/28 03:42:21;;;;;;;8.93;7.90;;;;;;;26.84;39.80;99168.66;5032629;28;20025;-83
2022/07/28 03:44:47;;;;;;;12.10;8.25;;;;;;;26.74;39.76;99138.97;5032520;28;20029;-84
2022/07/28 03:47:14;;;;;;;9.68;8.40;;;;;;;27.45;39.89;99238.19;5030693;28;20026;-84
2022/07/28 03:49:39;;;;;;;12.55;8.18;;;;;;;26.68;39.97;99104.94;5032172;28;20021;-84
2022/07/28 03:52:06;;;;;;;10.15;8.90;;;;;;;27.61;39.95;99233.34;5031324;28;20037;-84
2022/07/28 03:54:31;;;;;;;12.32;9.23;;;;;;;27.65;40.07;99229.75;5032542;28;20079;-84
2022/07/28 03:56:57;;;;;;;13.73;9.50;;;;;;;26.74;40.26;99082.09;5032098;28;20506;-84
2022/07/28 03:59:23;;;;;;;14.75;8.63;;;;;;;27.57;40.17;99214.13;5030335;28;20048;-84
2022/07/28 04:01:48;;;;;;;10.60;8.63;;;;;;;27.54;40.33;99206.59;5031810;28;20036;-84
2022/07/28 04:04:14;;;;;;;12.15;9.30;;;;;;;27.13;40.36;99125.13;5031587;28;20029;-84
2022/07/28 04:06:39;;;;;;;9.77;8.77;;;;;;;27.49;40.58;99177.63;5031445;28;20033;-84
2022/07/28 04:09:05;;;;;;;9.75;8.73;;;;;;;27.76;40.49;99212.19;5030064;28;20038;-84
2022/07/28 04:11:30;;;;;;;12.85;8.52;;;;;;;27.95;40.51;99285.38;5031555;28;20036;-84
2022/07/28 04:13:56;;;;;;;11.27;9.65;;;;;;;28.00;40.37;99241.06;5031396;28;20021;-84
2022/07/28 04:16:22;;;;;;;11.90;9.07;;;;;;;28.02;40.54;99242.38;5031307;28;20582;-84
2022/07/28 04:18:47;;;;;;;11.10;9.98;;;;;;;27.80;40.91;99237.63;5031658;28;20582;-84
2022/07/28 04:21:13;;;;;;;9.95;9.02;;;;;;;27.88;40.71;99210.91;5047483;28;20120;-84
2022/07/28 04:23:39;;;;;;;10.20;9.13;;;;;;;27.89;40.60;99216.03;5031943;28;20061;-84
2022/07/28 04:26:04;;;;;;;10.77;9.20;;;;;;;27.69;40.82;99200.94;5030801;28;20056;-84
2022/07/28 04:28:30;;;;;;;13.13;9.20;;;;;;;27.67;40.70;99222.13;5033080;28;20065;-84
2022/07/28 04:30:55;;;;;;;10.48;9.38;;;;;;;27.65;40.78;99208.06;5044625;28;20026;-85
2022/07/28 04:33:20;;;;;;;10.73;9.65;;;;;;;27.92;41.01;99283.28;5033451;28;20029;-84
2022/07/28 04:35:46;;;;;;;10.10;9.10;;;;;;;27.63;41.05;99204.84;5031453;28;20079;-84
2022/07/28 04:38:13;;;;;;;10.60;9.52;;;;;;;27.34;40.84;99152.69;5032165;28;20029;-84
2022/07/28 04:40:40;;;;;;;12.65;9.95;;;;;;;27.68;40.93;99231.06;5032286;28;20064;-83
2022/07/28 04:43:06;;;;;;;8.98;8.15;;;;;;;27.83;41.01;99237.03;5031600;28;20104;-84
2022/07/28 04:45:32;;;;;;;9.65;8.73;;;;;;;27.56;41.32;99200.88;5047322;28;20089;-84
2022/07/28 04:47:58;;;;;;;10.45;9.27;;;;;;;27.75;41.40;99250.47;5030151;28;20036;-85
2022/07/28 04:50:23;;;;;;;10.02;9.10;;;;;;;27.85;41.41;99244.88;5031747;28;20032;-84
2022/07/28 04:52:49;;;;;;;10.20;9.02;;;;;;;27.20;41.56;99152.66;5031554;28;20083;-84
2022/07/28 04:55:15;;;;;;;10.45;9.32;;;;;;;27.72;41.56;99229.38;5046580;28;20120;-84
2022/07/28 04:57:41;;;;;;;9.65;8.40;;;;;;;27.90;41.35;99250.19;5030452;28;20061;-84
2022/07/28 05:00:11;;;;;;;10.25;8.68;;;;;;;27.91;41.32;99253.72;5033855;28;20065;-84
2022/07/28 05:02:37;;;;;;;11.23;9.48;;;;;;;27.93;41.34;99267.78;5033996;28;20029;-84
2022/07/28 05:05:03;;;;;;;10.35;9.27;;;;;;;27.31;41.27;99166.84;5035085;28;20482;-84
2022/07/28 05:07:28;;;;;;;9.77;8.90;;;;;;;27.45;41.27;99197.50;5035025;28;20021;-84
2022/07/28 05:09:54;;;;;;;10.98;8.95;;;;;;;27.14;41.33;99138.38;5033596;28;20114;-84
2022/07/28 05:12:19;;;;;;;13.25;9.40;;;;;;;27.80;41.47;99253.91;5035399;28;20060;-84
2022/07/28 05:14:44;;;;;;;11.45;8.77;;;;;;;27.45;40.83;99190.16;5035683;28;20414;-84
2022/07/28 05:17:10;;;;;;;9.15;8.35;;;;;;;27.75;41.21;99251.28;5035946;28;20033;-84
2022/07/28 05:19:35;;;;;;;10.15;9.25;;;;;;;28.01;41.16;99270.63;5051050;28;20029;-84
2022/07/28 05:22:01;;;;;;;10.32;9.32;;;;;;;26.55;41.18;99033.38;5036268;28;20087;-84
2022/07/28 05:24:26;;;;;;;9.27;8.45;;;;;;;27.37;40.78;99165.66;5035017;28;20492;-84
2022/07/28 05:26:51;;;;;;;11.85;10.45;;;;;;;27.77;40.84;99265.34;5045814;28;20084;-85
2022/07/28 05:29:17;;;;;;;11.07;9.63;;;;;;;27.72;40.92;99235.59;5059175;28;20032;-85
2022/07/28 05:31:42;;;;;;;12.80;9.52;;;;;;;27.67;41.04;99214.00;5074709;28;20021;-85
2022/07/28 05:34:08;;;;;;;12.73;10.20;;;;;;;27.19;41.18;99124.75;5044726;28;20035;-84
2022/07/28 05:36:34;;;;;;;10.35;9.25;;;;;;;28.24;40.88;99295.22;5035907;28;20041;-84
2022/07/28 05:39:00;;;;;;;10.27;9.25;;;;;;;28.32;41.02;99294.53;5035695;28;20044;-84
2022/07/28 05:41:25;;;;;;;11.65;9.88;;;;;;;28.04;40.87;99255.66;5027925;28;20033;-84
2022/07/28 05:43:51;;;;;;;11.40;10.07;;;;;;;27.92;41.10;99237.13;5026765;28;20120;-84
2022/07/28 05:46:16;;;;;;;11.07;10.07;;;;;;;27.70;40.96;99197.13;5035448;28;20032;-85
2022/07/28 05:48:41;;;;;;;14.23;10.35;;;;;;;28.36;41.07;99304.50;5029071;28;20113;-84
2022/07/28 05:51:07;;;;;;;10.55;9.48;;;;;;;27.17;40.69;99126.13;5028917;28;20083;-84
2022/07/28 05:53:32;;;;;;;12.20;10.00;;;;;;;27.16;40.63;99116.41;5017887;28;20024;-85
2022/07/28 05:55:58;;;;;;;11.48;9.45;;;;;;;28.19;40.65;99260.78;5035404;28;20025;-84
2022/07/28 05:58:24;;;;;;;13.38;10.25;;;;;;;27.82;40.97;99208.28;5046851;28;20098;-84
2022/07/28 06:00:49;;;;;;;10.75;9.82;;;;;;;28.37;40.95;99313.44;5034912;28;20395;-84
2022/07/28 06:03:15;;;;;;;11.68;10.20;;;;;;;28.45;40.89;99323.63;5046858;28;20040;-85
2022/07/28 06:05:40;;;;;;;11.15;10.02;;;;;;;28.47;40.63;99315.97;5032184;28;20026;-84
2022/07/28 06:08:06;;;;;;;12.82;10.13;;;;;;;27.77;40.66;99197.53;5037900;28;20461;-84
2022/07/28 06:13:16;;;;;;;18.65;10.02;;;;;;;28.61;40.62;99326.84;5034976;28;20522;-85
2022/07/28 06:15:43;;;;;;;14.10;10.20;;;;;;;28.11;40.82;99234.34;5034680;28;20021;-84
2022/07/28 06:18:08;;;;;;;12.38;11.23;;;;;;;28.30;40.98;99261.44;5032597;28;20469;-85
2022/07/28 06:20:34;;;;;;;12.40;11.10;;;;;;;28.66;40.81;99318.59;5032245;28;20029;-84
2022/07/28 06:22:59;;;;;;;11.20;10.10;;;;;;;28.67;40.84;99325.63;5029082;28;20030;-84
2022/07/28 06:25:27;;;;;;;12.32;11.18;;;;;;;28.72;41.00;99329.03;5030908;28;20033;-84
2022/07/28 06:27:55;;;;;;;13.18;10.40;;;;;;;28.81;40.87;99329.13;5031589;28;20038;-85
2022/07/28 06:30:21;;;;;;;11.05;9.95;;;;;;;28.41;40.51;99279.16;5031681;28;20033;-85
2022/07/28 06:32:47;;;;;;;10.50;9.45;;;;;;;28.84;40.10;99325.84;5033081;28;20112;-85
2022/07/28 06:35:15;;;;;;;11.13;10.02;;;;;;;28.05;39.86;99216.53;5031524;28;20037;-84
2022/07/28 06:37:41;;;;;;;10.23;9.13;;;;;;;28.93;39.82;99325.94;5048102;28;20501;-85
2022/07/28 06:40:07;;;;;;;9.98;8.98;;;;;;;28.89;40.08;99322.22;5044108;28;20124;-84
2022/07/28 06:42:33;;;;;;;12.32;10.40;;;;;;;28.70;39.31;99297.84;5037477;28;20493;-85
2022/07/28 06:44:58;;;;;;;13.52;9.30;;;;;;;29.05;39.23;99334.41;5049701;28;20031;-84
2022/07/28 06:47:24;;;;;;;11.35;8.77;;;;;;;29.02;38.75;99314.06;5050754;28;20029;-84
2022/07/28 06:49:49;;;;;;;13.52;8.52;;;;;;;28.37;38.70;99192.06;5032281;28;20030;-85
2022/07/28 06:52:18;;;;;;;11.27;7.88;;;;;;;29.28;38.29;99343.41;5030800;28;20044;-85
2022/07/28 06:54:43;;;;;;;11.13;7.85;;;;;;;29.10;37.83;99291.59;5031174;28;20051;-85
2022/07/28 06:57:08;;;;;;;10.23;7.07;;;;;;;28.76;37.98;99234.94;5029449;28;20494;-84
2022/07/28 06:59:34;;;;;;;14.57;7.57;;;;;;;28.89;37.60;99270.56;5029179;28;20050;-85
2022/07/28 07:02:01;;;;;;;9.52;8.55;;;;;;;29.40;37.63;99332.81;5036840;28;20036;-84
2022/07/28 07:04:27;;;;;;;11.73;7.93;;;;;;;29.28;37.15;99327.91;5050330;28;20106;-85
2022/07/28 07:06:53;;;;;;;12.20;7.43;;;;;;;28.61;36.74;99191.00;5045940;28;20501;-85
2022/07/28 07:09:18;;;;;;;8.05;6.13;;;;;;;28.11;36.51;99106.75;5038703;28;20026;-85
2022/07/28 07:11:44;;;;;;;8.18;6.35;;;;;;;29.34;36.17;99285.88;5033717;28;20492;-85
2022/07/28 07:14:09;;;;;;;5.90;5.30;;;;;;;29.49;35.80;99298.34;5028406;28;20470;-85
2022/07/28 07:16:35;;;;;;;7.53;6.70;;;;;;;29.64;35.40;99303.41;5013949;28;20030;-84
2022/07/28 07:19:00;;;;;;;13.23;6.90;;;;;;;29.48;35.56;99260.56;5032213;28;20417;-84
2022/07/28 07:21:26;;;;;;;6.30;5.70;;;;;;;29.80;35.29;99305.78;5030637;28;20021;-85
2022/07/28 07:23:51;;;;;;;10.82;5.07;;;;;;;29.60;34.98;99250.72;5035764;28;20030;-85
2022/07/28 07:26:16;;;;;;;7.90;7.03;;;;;;;30.10;35.49;99337.69;5041355;28;20056;-85
2022/07/28 07:28:42;;;;;;;11.05;6.88;;;;;;;29.01;34.96;99138.50;5010709;28;20414;-85
2022/07/28 07:31:07;;;;;;;8.00;5.65;;;;;;;29.99;34.94;99288.13;5014061;28;20112;-85
2022/07/28 07:33:33;;;;;;;15.60;7.32;;;;;;;29.87;35.06;99262.59;5046889;28;20529;-84
2022/07/28 07:35:58;;;;;;;9.35;5.90;;;;;;;30.09;34.57;99270.75;5030806;28;20029;-84
2022/07/28 07:38:24;;;;;;;10.93;6.57;;;;;;;29.91;34.42;99260.84;5031629;28;20154;-84
2022/07/28 07:40:50;;;;;;;14.35;5.53;;;;;;;29.95;34.39;99246.31;5032046;28;20026;-84
2022/07/28 07:43:16;;;;;;;6.70;6.00;;;;;;;29.45;34.09;99158.63;5029925;28;20026;-84
2022/07/28 07:45:42;;;;;;;10.65;6.78;;;;;;;30.50;34.12;99318.69;5022665;28;20030;-85
2022/07/28 07:48:07;;;;;;;8.85;7.93;;;;;;;30.44;34.25;99273.59;5026737;28;20040;-85
2022/07/28 07:50:33;;;;;;;10.95;9.27;;;;;;;30.62;33.92;99300.63;5019340;28;20030;-85
2022/07/28 07:52:59;;;;;;;10.93;7.93;;;;;;;30.54;34.09;99274.13;5010185;28;20062;-85
2022/07/28 07:55:25;;;;;;;9.27;7.38;;;;;;;30.79;33.93;99302.59;5038436;28;20060;-85
2022/07/28 07:57:51;;;;;;;7.78;6.90;;;;;;;30.58;33.79;99256.03;5035559;28;20410;-85
2022/07/28 08:00:16;;;;;;;9.32;6.93;;;;;;;30.88;33.85;99287.06;5025697;28;20054;-85
2022/07/28 08:02:42;;;;;;;8.88;7.60;;;;;;;31.10;33.72;99318.03;5028484;28;20031;-85
2022/07/28 08:05:08;;;;;;;9.48;7.25;;;;;;;30.84;33.24;99283.38;5046277;28;20083;-84
2022/07/28 08:07:34;;;;;;;9.63;7.32;;;;;;;31.33;33.43;99332.41;5030561;28;20017;-85
2022/07/28 08:10:00;;;;;;;17.23;11.43;;;;;;;31.27;33.41;99301.75;5039893;28;20087;-85
2022/07/28 08:12:26;;;;;;;12.73;9.52;;;;;;;31.33;33.33;99299.66;5032067;28;20025;-85
2022/07/28 08:14:52;;;;;;;16.45;10.25;;;;;;;31.59;33.10;99325.81;5033249;28;20080;-85
2022/07/28 08:17:17;;;;;;;12.18;10.20;;;;;;;31.54;33.14;99306.06;5042538;28;20041;-85
2022/07/28 08:19:43;;;;;;;8.82;8.02;;;;;;;30.68;33.42;99137.78;5021241;28;20040;-85
2022/07/28 08:22:08;;;;;;;9.55;7.90;;;;;;;31.52;32.96;99257.28;5027326;28;20034;-85
2022/07/28 08:24:34;;;;;;;9.73;8.10;;;;;;;31.53;32.73;99272.53;5037349;28;20037;-85
2022/07/28 08:27:00;;;;;;;11.30;8.63;;;;;;;31.36;32.56;99212.53;5030679;28;20025;-85
2022/07/28 08:29:26;;;;;;;10.15;7.18;;;;;;;31.32;32.16;99197.91;5027603;28;20113;-85
2022/07/28 08:31:51;;;;;;;9.02;7.28;;;;;;;32.11;31.89;99298.47;5029828;28;20131;-85
2022/07/28 08:34:17;;;;;;;11.75;8.20;;;;;;;31.59;31.96;99211.19;5032907;28;20096;-84
2022/07/28 08:36:42;;;;;;;7.00;6.28;;;;;;;32.39;30.81;99307.06;5031293;28;20044;-87
2022/07/28 08:39:07;;;;;;;12.30;7.38;;;;;;;32.42;31.24;99333.72;5034119;28;20627;-86
2022/07/28 08:41:45;;;;;;;9.65;8.65;;;;;;;32.21;31.02;99291.84;5035429;28;20021;-86
2022/07/28 08:44:17;;;;;;;11.25;6.90;;;;;;;32.62;30.38;99306.78;5040475;28;20298;-87
2022/07/28 08:46:45;;;;;;;8.40;6.82;;;;;;;32.61;30.43;99295.06;5025914;28;20079;-89
2022/07/28 08:49:12;;;;;;;9.55;6.03;;;;;;;32.66;30.40;99283.13;5034553;28;20027;-87
2022/07/28 08:51:40;;;;;;;10.63;6.60;;;;;;;32.87;29.64;99300.44;5027378;28;20108;-87
2022/07/28 08:54:07;;;;;;;8.13;5.57;;;;;;;32.68;29.02;99269.94;5016524;28;20035;-88
2022/07/28 08:56:40;;;;;;;10.70;7.82;;;;;;;33.08;29.27;99314.91;5033069;28;20022;-87
2022/07/28 08:59:06;;;;;;;8.05;6.30;;;;;;;32.28;29.22;99179.34;5034933;28;20081;-86
2022/07/28 09:01:32;;;;;;;8.40;7.32;;;;;;;32.95;29.28;99264.00;5034640;28;20138;-90
2022/07/28 09:14:18;;;;;;;6.90;5.40;;;;;;;33.56;27.54;99227.94;6086411;22;21125;-77
2022/07/28 09:16:44;;;;;;;6.97;4.82;;;;;;;33.69;26.87;99229.56;4965496;28;20047;-78
2022/07/28 09:19:09;;;;;;;6.57;5.13;;;;;;;33.72;27.50;99216.00;4972754;28;20092;-80
2022/07/28 09:21:35;;;;;;;7.18;6.47;;;;;;;34.44;27.33;99282.25;4956729;28;20034;-78
2022/07/28 09:24:01;;;;;;;10.18;9.18;;;;;;;34.57;26.94;99292.06;4972202;28;20038;-78
2022/07/28 09:26:26;;;;;;;9.73;5.80;;;;;;;34.31;26.55;99206.63;4973641;28;20552;-78
2022/07/28 09:28:56;;;;;;;7.40;6.55;;;;;;;35.01;26.70;99292.31;4974363;28;20038;-79
2022/07/28 09:31:24;;;;;;;8.70;6.28;;;;;;;34.60;26.27;99202.84;4973430;28;20065;-79
2022/07/28 09:34:00;;;;;;;12.95;7.53;;;;;;;35.29;25.56;99273.13;4972246;28;20026;-78
2022/07/28 09:36:37;;;;;;;9.40;4.95;;;;;;;35.32;24.71;99226.56;4974127;28;20026;-80
2022/07/28 09:39:03;;;;;;;9.18;6.32;;;;;;;35.63;24.75;99266.25;4969899;28;20074;-80
2022/07/28 09:41:28;;;;;;;7.78;5.60;;;;;;;35.50;24.45;99220.78;4974428;28;20054;-79
2022/07/28 09:43:53;;;;;;;9.32;5.60;;;;;;;35.81;24.24;99251.09;4973086;28;20430;-80
2022/07/28 09:46:21;;;;;;;6.38;4.85;;;;;;;36.27;24.10;99281.69;4972691;28;20042;-80
2022/07/28 09:48:49;;;;;;;8.38;5.07;;;;;;;36.33;23.88;99293.22;4971336;28;20022;-80
2022/07/28 09:51:20;;;;;;;8.13;5.60;;;;;;;35.75;24.03;99194.78;4973623;28;20042;-80
2022/07/28 09:53:45;;;;;;;9.60;5.45;;;;;;;35.98;24.10;99226.00;4978009;28;20052;-80
2022/07/28 09:56:12;;;;;;;10.68;6.45;;;;;;;36.39;23.86;99261.56;4991971;28;20034;-80
2022/07/28 09:58:38;;;;;;;8.13;6.22;;;;;;;36.73;23.83;99299.31;4994193;28;20513;-80
2022/07/28 10:01:06;;;;;;;7.13;5.93;;;;;;;36.46;23.94;99237.00;4993797;28;20034;-80
2022/07/28 10:03:33;;;;;;;8.00;4.88;;;;;;;36.62;24.03;99226.75;4994017;28;20132;-80
2022/07/28 10:06:03;;;;;;;5.75;5.07;;;;;;;36.90;23.90;99243.13;4994352;28;20105;-77
2022/07/28 10:08:48;;;;;;;8.32;5.20;;;;;;;37.32;23.32;99272.75;4979261;28;20022;-76
2022/07/28 10:11:20;;;;;;;7.70;5.47;;;;;;;37.51;22.75;99286.50;4990414;28;20045;-77
2022/07/28 10:13:55;;;;;;;5.68;5.07;;;;;;;37.46;22.29;99253.75;4956774;28;20114;-78
2022/07/28 10:16:22;;;;;;;6.82;5.15;;;;;;;37.19;22.44;99231.56;4988953;28;20050;-77
2022/07/28 10:18:48;;;;;;;7.63;6.80;;;;;;;36.79;22.15;99162.31;4992355;28;20033;-78
2022/07/28 10:21:16;;;;;;;5.95;5.43;;;;;;;37.67;22.36;99276.19;4994328;28;20014;-78
2022/07/28 10:23:53;;;;;;;7.05;6.35;;;;;;;37.76;22.12;99279.53;4993918;28;20173;-78
2022/07/28 10:26:40;;;;;;;8.18;7.38;;;;;;;37.91;22.08;99283.38;4974886;28;20573;-78
2022/07/28 10:29:08;;;;;;;6.53;5.20;;;;;;;38.01;22.12;99257.94;4990740;28;20048;-78
2022/07/28 10:31:37;;;;;;;8.95;5.10;;;;;;;37.98;21.53;99246.84;4992514;28;20026;-77
2022/07/28 10:34:06;;;;;;;6.18;5.22;;;;;;;38.07;21.96;99248.19;4992135;28;20131;-77
2022/07/28 10:36:33;;;;;;;6.25;5.20;;;;;;;38.25;21.30;99258.75;4993189;28;20026;-77
2022/07/28 10:39:10;;;;;;;7.47;5.40;;;;;;;38.41;21.26;99268.47;4976535;28;20085;-78
2022/07/28 10:41:40;;;;;;;8.90;4.78;;;;;;;38.11;21.39;99204.13;4993846;28;20065;-78
2022/07/28 10:44:07;;;;;;;5.80;5.32;;;;;;;38.65;21.53;99270.06;4993279;28;20044;-78
2022/07/28 10:46:34;;;;;;;8.57;6.35;;;;;;;38.62;21.52;99267.22;4993235;28;20085;-77
2022/07/28 10:49:00;;;;;;;7.43;5.80;;;;;;;38.64;21.30;99253.84;4993559;28;20030;-78
2022/07/28 10:51:26;;;;;;;7.93;5.53;;;;;;;38.34;21.47;99204.13;4993368;28;20142;-77
2022/07/28 10:53:57;;;;;;;6.72;5.57;;;;;;;38.67;21.72;99267.72;4993668;28;20030;-78
2022/07/28 10:56:36;;;;;;;7.38;5.45;;;;;;;38.17;21.36;99161.31;4993433;28;20414;-78
2022/07/28 10:59:14;;;;;;;5.65;4.97;;;;;;;38.91;21.07;99246.34;4993301;28;20033;-78
2022/07/28 11:01:40;;;;;;;8.77;5.60;;;;;;;38.76;20.93;99224.09;4991513;28;20434;-77
2022/07/28 11:04:06;;;;;;;10.43;6.00;;;;;;;39.28;21.15;99251.97;4991635;28;20099;-78
2022/07/28 11:06:35;;;;;;;6.93;5.45;;;;;;;39.36;20.82;99250.88;4991346;28;20041;-78
2022/07/28 11:09:15;;;;;;;8.98;6.55;;;;;;;39.51;20.79;99246.34;4992294;28;20026;-78
2022/07/28 11:11:45;;;;;;;5.90;5.30;;;;;;;39.54;21.10;99251.91;4989299;28;20034;-77
2022/07/28 11:14:28;;;;;;;6.53;5.50;;;;;;;39.65;21.04;99246.50;4990342;28;20030;-78
2022/07/28 11:16:59;;;;;;;8.98;5.70;;;;;;;39.82;20.79;99239.53;4993029;28;20049;-78
2022/07/28 11:19:29;;;;;;;6.28;5.35;;;;;;;39.60;21.05;99197.88;4993695;28;20029;-78
2022/07/28 11:22:13;;;;;;;7.30;5.00;;;;;;;40.01;20.79;99237.38;4993758;28;20501;-78
2022/07/28 11:24:59;;;;;;;8.00;5.47;;;;;;;40.23;20.82;99235.59;4992063;28;20077;-77
2022/07/28 11:27:40;;;;;;;6.45;5.72;;;;;;;40.45;20.30;99224.69;4991460;28;20387;-76
2022/07/28 11:30:10;;;;;;;6.82;6.28;;;;;;;40.31;20.63;99208.78;4992045;28;20128;-76
2022/07/28 11:32:52;;;;;;;8.35;5.97;;;;;;;40.31;21.17;99231.69;4988270;28;20030;-77
2022/07/28 11:35:21;;;;;;;13.88;6.40;;;;;;;40.09;21.22;99177.38;4987785;28;20080;-77
2022/07/28 11:38:02;;;;;;;7.47;6.37;;;;;;;40.51;21.29;99217.63;4989621;28;20025;-77
2022/07/28 11:40:29;;;;;;;7.07;6.35;;;;;;;40.34;21.26;99196.94;4991958;28;20673;-77
2022/07/28 11:43:21;;;;;;;7.70;7.00;;;;;;;40.69;20.71;99212.97;4992229;28;20489;-77
2022/07/28 11:45:47;;;;;;;7.07;6.57;;;;;;;40.68;20.86;99211.38;4971623;28;20034;-79
2022/07/28 11:48:16;;;;;;;10.18;9.18;;;;;;;40.47;20.88;99164.22;4992485;28;20590;-78
2022/07/28 11:51:02;;;;;;;8.23;7.43;;;;;;;40.93;20.83;99212.34;4979997;28;20049;-77